sensor_id;sensor_type;location;lat;lon;timestamp;P1;durP1;ratioP1;P2;durP2;ratioP2
58071;SDS011;60383;46.626;18.866;2023-04-25T00:00:31;0.90;;;0.90;;
58071;SDS011;60383;46.626;18.866;2023-04-25T00:02:57;1.00;;;0.70;;
58071;SDS011;60383;46.626;18.866;2023-04-25T00:05:24;1.05;;;0.90;;
58071;SDS011;60383;46.626;18.866;2023-04-25T00:07:49;1.00;;;0.98;;
58071;SDS011;60383;46.626;18.866;2023-04-25T00:10:15;0.82;;;0.82;;
58071;SDS011;60383;46.626;18.866;2023-04-25T00:12:41;1.20;;;1.00;;
58071;SDS011;60383;46.626;18.866;2023-04-25T00:15:07;1.15;;;0.90;;
58071;SDS011;60383;46.626;18.866;2023-04-25T00:17:33;1.13;;;0.88;;
58071;SDS011;60383;46.626;18.866;2023-04-25T00:20:00;0.80;;;0.80;;
58071;SDS011;60383;46.626;18.866;2023-04-25T00:22:25;1.00;;;1.00;;
58071;SDS011;60383;46.626;18.866;2023-04-25T00:24:51;0.90;;;0.90;;
58071;SDS011;60383;46.626;18.866;2023-04-25T00:27:18;0.95;;;0.80;;
58071;SDS011;60383;46.626;18.866;2023-04-25T00:29:43;1.30;;;1.20;;
58071;SDS011;60383;46.626;18.866;2023-04-25T00:32:09;0.93;;;0.90;;
58071;SDS011;60383;46.626;18.866;2023-04-25T00:34:35;1.10;;;1.00;;
58071;SDS011;60383;46.626;18.866;2023-04-25T00:37:01;0.90;;;0.90;;
58071;SDS011;60383;46.626;18.866;2023-04-25T00:39:27;1.92;;;1.17;;
58071;SDS011;60383;46.626;18.866;2023-04-25T00:41:53;1.60;;;1.13;;
58071;SDS011;60383;46.626;18.866;2023-04-25T00:44:19;2.45;;;1.10;;
58071;SDS011;60383;46.626;18.866;2023-04-25T00:46:46;2.15;;;1.20;;
58071;SDS011;60383;46.626;18.866;2023-04-25T00:49:12;1.58;;;1.10;;
58071;SDS011;60383;46.626;18.866;2023-04-25T00:51:40;1.50;;;1.33;;
58071;SDS011;60383;46.626;18.866;2023-04-25T00:54:06;1.08;;;1.00;;
58071;SDS011;60383;46.626;18.866;2023-04-25T00:56:32;1.13;;;1.02;;
58071;SDS011;60383;46.626;18.866;2023-04-25T00:58:57;1.40;;;1.20;;
58071;SDS011;60383;46.626;18.866;2023-04-25T01:01:23;1.20;;;1.10;;
58071;SDS011;60383;46.626;18.866;2023-04-25T01:03:49;1.10;;;1.00;;
58071;SDS011;60383;46.626;18.866;2023-04-25T01:06:16;1.40;;;1.20;;
58071;SDS011;60383;46.626;18.866;2023-04-25T01:08:41;1.40;;;1.10;;
58071;SDS011;60383;46.626;18.866;2023-04-25T01:11:07;1.48;;;1.38;;
58071;SDS011;60383;46.626;18.866;2023-04-25T01:13:33;1.40;;;1.30;;
58071;SDS011;60383;46.626;18.866;2023-04-25T01:15:59;1.45;;;1.30;;
58071;SDS011;60383;46.626;18.866;2023-04-25T01:18:25;2.58;;;1.40;;
58071;SDS011;60383;46.626;18.866;2023-04-25T01:20:51;1.70;;;1.25;;
58071;SDS011;60383;46.626;18.866;2023-04-25T01:23:18;1.30;;;1.20;;
58071;SDS011;60383;46.626;18.866;2023-04-25T01:25:44;1.42;;;1.33;;
58071;SDS011;60383;46.626;18.866;2023-04-25T01:28:10;1.38;;;1.23;;
58071;SDS011;60383;46.626;18.866;2023-04-25T01:30:36;1.58;;;1.38;;
58071;SDS011;60383;46.626;18.866;2023-04-25T01:33:03;2.13;;;1.38;;
58071;SDS011;60383;46.626;18.866;2023-04-25T01:35:30;2.42;;;1.40;;
58071;SDS011;60383;46.626;18.866;2023-04-25T01:37:57;1.70;;;1.52;;
58071;SDS011;60383;46.626;18.866;2023-04-25T01:40:23;1.73;;;1.40;;
58071;SDS011;60383;46.626;18.866;2023-04-25T01:42:49;2.13;;;1.70;;
58071;SDS011;60383;46.626;18.866;2023-04-25T01:45:16;1.90;;;1.70;;
58071;SDS011;60383;46.626;18.866;2023-04-25T01:47:42;2.20;;;1.50;;
58071;SDS011;60383;46.626;18.866;2023-04-25T01:50:11;1.70;;;1.42;;
58071;SDS011;60383;46.626;18.866;2023-04-25T01:52:37;1.95;;;1.70;;
58071;SDS011;60383;46.626;18.866;2023-04-25T01:55:03;1.77;;;1.58;;
58071;SDS011;60383;46.626;18.866;2023-04-25T01:57:28;2.30;;;1.48;;
58071;SDS011;60383;46.626;18.866;2023-04-25T01:59:55;2.67;;;1.60;;
58071;SDS011;60383;46.626;18.866;2023-04-25T02:02:24;2.20;;;1.77;;
58071;SDS011;60383;46.626;18.866;2023-04-25T02:04:51;2.00;;;1.40;;
58071;SDS011;60383;46.626;18.866;2023-04-25T02:07:16;1.80;;;1.70;;
58071;SDS011;60383;46.626;18.866;2023-04-25T02:09:42;2.22;;;1.67;;
58071;SDS011;60383;46.626;18.866;2023-04-25T02:12:08;1.50;;;1.40;;
58071;SDS011;60383;46.626;18.866;2023-04-25T02:14:35;2.20;;;1.40;;
58071;SDS011;60383;46.626;18.866;2023-04-25T02:17:00;2.65;;;1.65;;
58071;SDS011;60383;46.626;18.866;2023-04-25T02:19:26;1.77;;;1.67;;
58071;SDS011;60383;46.626;18.866;2023-04-25T02:21:52;1.95;;;1.75;;
58071;SDS011;60383;46.626;18.866;2023-04-25T02:24:17;2.30;;;1.63;;
58071;SDS011;60383;46.626;18.866;2023-04-25T02:26:42;2.60;;;1.60;;
58071;SDS011;60383;46.626;18.866;2023-04-25T02:29:09;1.92;;;1.42;;
58071;SDS011;60383;46.626;18.866;2023-04-25T02:31:35;1.70;;;1.42;;
58071;SDS011;60383;46.626;18.866;2023-04-25T02:34:00;2.78;;;1.58;;
58071;SDS011;60383;46.626;18.866;2023-04-25T02:36:26;1.73;;;1.52;;
58071;SDS011;60383;46.626;18.866;2023-04-25T02:38:52;2.22;;;2.03;;
58071;SDS011;60383;46.626;18.866;2023-04-25T02:41:18;2.47;;;1.75;;
58071;SDS011;60383;46.626;18.866;2023-04-25T02:43:43;2.03;;;1.55;;
58071;SDS011;60383;46.626;18.866;2023-04-25T02:46:08;1.67;;;1.42;;
58071;SDS011;60383;46.626;18.866;2023-04-25T02:48:34;2.47;;;1.67;;
58071;SDS011;60383;46.626;18.866;2023-04-25T02:51:00;1.77;;;1.55;;
58071;SDS011;60383;46.626;18.866;2023-04-25T02:53:25;1.85;;;1.65;;
58071;SDS011;60383;46.626;18.866;2023-04-25T02:55:51;2.13;;;1.60;;
58071;SDS011;60383;46.626;18.866;2023-04-25T02:58:17;2.80;;;1.60;;
58071;SDS011;60383;46.626;18.866;2023-04-25T03:00:43;2.50;;;1.67;;
58071;SDS011;60383;46.626;18.866;2023-04-25T03:03:08;2.45;;;1.70;;
58071;SDS011;60383;46.626;18.866;2023-04-25T03:05:34;1.95;;;1.40;;
58071;SDS011;60383;46.626;18.866;2023-04-25T03:08:00;2.38;;;1.65;;
58071;SDS011;60383;46.626;18.866;2023-04-25T03:10:25;2.45;;;1.55;;
58071;SDS011;60383;46.626;18.866;2023-04-25T03:12:51;1.80;;;1.70;;
58071;SDS011;60383;46.626;18.866;2023-04-25T03:15:16;1.95;;;1.45;;
58071;SDS011;60383;46.626;18.866;2023-04-25T03:17:42;2.40;;;1.52;;
58071;SDS011;60383;46.626;18.866;2023-04-25T03:20:08;1.83;;;1.52;;
58071;SDS011;60383;46.626;18.866;2023-04-25T03:22:34;1.48;;;1.38;;
58071;SDS011;60383;46.626;18.866;2023-04-25T03:24:59;1.95;;;1.60;;
58071;SDS011;60383;46.626;18.866;2023-04-25T03:27:25;1.60;;;1.30;;
58071;SDS011;60383;46.626;18.866;2023-04-25T03:29:50;1.88;;;1.60;;
58071;SDS011;60383;46.626;18.866;2023-04-25T03:32:16;1.95;;;1.33;;
58071;SDS011;60383;46.626;18.866;2023-04-25T03:34:41;1.88;;;1.65;;
58071;SDS011;60383;46.626;18.866;2023-04-25T03:37:07;1.85;;;1.48;;
58071;SDS011;60383;46.626;18.866;2023-04-25T03:39:32;1.92;;;1.40;;
58071;SDS011;60383;46.626;18.866;2023-04-25T03:41:58;1.65;;;1.30;;
58071;SDS011;60383;46.626;18.866;2023-04-25T03:44:23;1.88;;;1.60;;
58071;SDS011;60383;46.626;18.866;2023-04-25T03:46:49;2.15;;;1.40;;
58071;SDS011;60383;46.626;18.866;2023-04-25T03:49:15;1.75;;;1.50;;
58071;SDS011;60383;46.626;18.866;2023-04-25T03:51:41;2.05;;;1.60;;
58071;SDS011;60383;46.626;18.866;2023-04-25T03:54:06;1.95;;;1.60;;
58071;SDS011;60383;46.626;18.866;2023-04-25T03:56:32;1.48;;;1.30;;
58071;SDS011;60383;46.626;18.866;2023-04-25T03:58:58;1.60;;;1.50;;
58071;SDS011;60383;46.626;18.866;2023-04-25T04:01:23;1.50;;;1.40;;
58071;SDS011;60383;46.626;18.866;2023-04-25T04:03:49;2.17;;;1.95;;
58071;SDS011;60383;46.626;18.866;2023-04-25T04:06:14;1.60;;;1.42;;
58071;SDS011;60383;46.626;18.866;2023-04-25T04:08:40;1.63;;;1.45;;
58071;SDS011;60383;46.626;18.866;2023-04-25T04:11:05;1.60;;;1.35;;
58071;SDS011;60383;46.626;18.866;2023-04-25T04:13:31;1.75;;;1.33;;
58071;SDS011;60383;46.626;18.866;2023-04-25T04:15:56;1.70;;;1.58;;
58071;SDS011;60383;46.626;18.866;2023-04-25T04:18:23;1.45;;;1.35;;
58071;SDS011;60383;46.626;18.866;2023-04-25T04:20:48;1.63;;;1.45;;
58071;SDS011;60383;46.626;18.866;2023-04-25T04:23:14;2.72;;;1.58;;
58071;SDS011;60383;46.626;18.866;2023-04-25T04:25:39;2.75;;;1.75;;
58071;SDS011;60383;46.626;18.866;2023-04-25T04:28:05;1.58;;;1.48;;
58071;SDS011;60383;46.626;18.866;2023-04-25T04:30:32;1.40;;;1.30;;
58071;SDS011;60383;46.626;18.866;2023-04-25T04:33:01;3.25;;;1.42;;
58071;SDS011;60383;46.626;18.866;2023-04-25T04:35:27;1.40;;;1.30;;
58071;SDS011;60383;46.626;18.866;2023-04-25T04:37:52;1.85;;;1.42;;
58071;SDS011;60383;46.626;18.866;2023-04-25T04:40:19;1.52;;;1.40;;
58071;SDS011;60383;46.626;18.866;2023-04-25T04:42:45;2.53;;;1.83;;
58071;SDS011;60383;46.626;18.866;2023-04-25T04:45:11;2.03;;;1.55;;
58071;SDS011;60383;46.626;18.866;2023-04-25T04:47:38;1.83;;;1.50;;
58071;SDS011;60383;46.626;18.866;2023-04-25T04:50:07;1.80;;;1.50;;
58071;SDS011;60383;46.626;18.866;2023-04-25T04:52:37;1.90;;;1.50;;
58071;SDS011;60383;46.626;18.866;2023-04-25T04:55:05;1.80;;;1.45;;
58071;SDS011;60383;46.626;18.866;2023-04-25T04:57:31;1.88;;;1.67;;
58071;SDS011;60383;46.626;18.866;2023-04-25T04:59:58;1.58;;;1.33;;
58071;SDS011;60383;46.626;18.866;2023-04-25T05:02:24;1.63;;;1.52;;
58071;SDS011;60383;46.626;18.866;2023-04-25T05:04:50;1.30;;;1.20;;
58071;SDS011;60383;46.626;18.866;2023-04-25T05:07:16;1.70;;;1.40;;
58071;SDS011;60383;46.626;18.866;2023-04-25T05:09:42;1.50;;;1.40;;
58071;SDS011;60383;46.626;18.866;2023-04-25T05:12:08;1.88;;;1.45;;
58071;SDS011;60383;46.626;18.866;2023-04-25T05:14:33;1.92;;;1.52;;
58071;SDS011;60383;46.626;18.866;2023-04-25T05:16:59;2.25;;;1.50;;
58071;SDS011;60383;46.626;18.866;2023-04-25T05:19:25;1.88;;;1.65;;
58071;SDS011;60383;46.626;18.866;2023-04-25T05:21:50;1.98;;;1.58;;
58071;SDS011;60383;46.626;18.866;2023-04-25T05:24:16;1.80;;;1.35;;
58071;SDS011;60383;46.626;18.866;2023-04-25T05:26:41;2.63;;;1.73;;
58071;SDS011;60383;46.626;18.866;2023-04-25T05:29:07;1.75;;;1.63;;
58071;SDS011;60383;46.626;18.866;2023-04-25T05:31:32;1.90;;;1.58;;
58071;SDS011;60383;46.626;18.866;2023-04-25T05:33:58;2.35;;;1.70;;
58071;SDS011;60383;46.626;18.866;2023-04-25T05:36:23;1.30;;;1.20;;
58071;SDS011;60383;46.626;18.866;2023-04-25T05:38:49;1.83;;;1.50;;
58071;SDS011;60383;46.626;18.866;2023-04-25T05:41:14;1.45;;;1.30;;
58071;SDS011;60383;46.626;18.866;2023-04-25T05:43:40;2.15;;;1.60;;
58071;SDS011;60383;46.626;18.866;2023-04-25T05:46:12;2.13;;;1.85;;
58071;SDS011;60383;46.626;18.866;2023-04-25T05:48:38;2.58;;;1.63;;
58071;SDS011;60383;46.626;18.866;2023-04-25T05:51:04;1.88;;;1.67;;
58071;SDS011;60383;46.626;18.866;2023-04-25T05:53:30;1.70;;;1.35;;
58071;SDS011;60383;46.626;18.866;2023-04-25T05:55:55;2.42;;;1.70;;
58071;SDS011;60383;46.626;18.866;2023-04-25T05:58:21;2.67;;;1.70;;
58071;SDS011;60383;46.626;18.866;2023-04-25T06:00:47;3.00;;;1.73;;
58071;SDS011;60383;46.626;18.866;2023-04-25T06:03:12;1.95;;;1.70;;
58071;SDS011;60383;46.626;18.866;2023-04-25T06:05:42;1.63;;;1.50;;
58071;SDS011;60383;46.626;18.866;2023-04-25T06:08:09;1.77;;;1.33;;
58071;SDS011;60383;46.626;18.866;2023-04-25T06:10:35;1.98;;;1.50;;
58071;SDS011;60383;46.626;18.866;2023-04-25T06:13:01;2.85;;;1.70;;
58071;SDS011;60383;46.626;18.866;2023-04-25T06:15:27;2.40;;;1.42;;
58071;SDS011;60383;46.626;18.866;2023-04-25T06:17:53;1.83;;;1.50;;
58071;SDS011;60383;46.626;18.866;2023-04-25T06:20:18;2.65;;;1.77;;
58071;SDS011;60383;46.626;18.866;2023-04-25T06:22:48;1.70;;;1.50;;
58071;SDS011;60383;46.626;18.866;2023-04-25T06:25:14;2.47;;;1.77;;
58071;SDS011;60383;46.626;18.866;2023-04-25T06:27:39;1.70;;;1.58;;
58071;SDS011;60383;46.626;18.866;2023-04-25T06:30:05;2.00;;;1.80;;
58071;SDS011;60383;46.626;18.866;2023-04-25T06:32:31;1.98;;;1.70;;
58071;SDS011;60383;46.626;18.866;2023-04-25T06:34:57;2.00;;;1.60;;
58071;SDS011;60383;46.626;18.866;2023-04-25T06:37:23;1.55;;;1.45;;
58071;SDS011;60383;46.626;18.866;2023-04-25T06:39:48;1.80;;;1.60;;
58071;SDS011;60383;46.626;18.866;2023-04-25T06:42:14;1.63;;;1.38;;
58071;SDS011;60383;46.626;18.866;2023-04-25T06:44:39;2.55;;;1.70;;
58071;SDS011;60383;46.626;18.866;2023-04-25T06:47:05;2.78;;;2.00;;
58071;SDS011;60383;46.626;18.866;2023-04-25T06:49:30;1.98;;;1.67;;
58071;SDS011;60383;46.626;18.866;2023-04-25T06:51:56;2.00;;;1.80;;
58071;SDS011;60383;46.626;18.866;2023-04-25T06:54:21;2.72;;;1.70;;
58071;SDS011;60383;46.626;18.866;2023-04-25T06:56:46;2.35;;;1.48;;
58071;SDS011;60383;46.626;18.866;2023-04-25T06:59:12;1.10;;;1.00;;
58071;SDS011;60383;46.626;18.866;2023-04-25T07:01:37;2.00;;;1.55;;
58071;SDS011;60383;46.626;18.866;2023-04-25T07:04:03;1.58;;;1.48;;
58071;SDS011;60383;46.626;18.866;2023-04-25T07:06:29;1.48;;;1.30;;
58071;SDS011;60383;46.626;18.866;2023-04-25T07:08:54;2.00;;;1.55;;
58071;SDS011;60383;46.626;18.866;2023-04-25T07:11:20;2.47;;;1.65;;
58071;SDS011;60383;46.626;18.866;2023-04-25T07:13:46;2.17;;;1.90;;
58071;SDS011;60383;46.626;18.866;2023-04-25T07:16:11;2.03;;;1.63;;
58071;SDS011;60383;46.626;18.866;2023-04-25T07:18:37;1.85;;;1.58;;
58071;SDS011;60383;46.626;18.866;2023-04-25T07:21:02;2.10;;;1.70;;
58071;SDS011;60383;46.626;18.866;2023-04-25T07:23:28;1.95;;;1.52;;
58071;SDS011;60383;46.626;18.866;2023-04-25T07:25:53;1.60;;;1.35;;
58071;SDS011;60383;46.626;18.866;2023-04-25T07:28:19;2.05;;;1.77;;
58071;SDS011;60383;46.626;18.866;2023-04-25T07:30:45;1.58;;;1.48;;
58071;SDS011;60383;46.626;18.866;2023-04-25T07:33:10;2.20;;;1.73;;
58071;SDS011;60383;46.626;18.866;2023-04-25T07:35:36;2.80;;;1.75;;
58071;SDS011;60383;46.626;18.866;2023-04-25T07:38:02;2.03;;;1.80;;
58071;SDS011;60383;46.626;18.866;2023-04-25T07:40:28;2.95;;;1.88;;
58071;SDS011;60383;46.626;18.866;2023-04-25T07:42:53;3.03;;;2.35;;
58071;SDS011;60383;46.626;18.866;2023-04-25T07:45:19;2.03;;;1.83;;
58071;SDS011;60383;46.626;18.866;2023-04-25T07:47:44;2.35;;;1.80;;
58071;SDS011;60383;46.626;18.866;2023-04-25T07:50:10;2.80;;;1.65;;
58071;SDS011;60383;46.626;18.866;2023-04-25T07:52:36;2.67;;;1.75;;
58071;SDS011;60383;46.626;18.866;2023-04-25T07:55:01;2.40;;;1.90;;
58071;SDS011;60383;46.626;18.866;2023-04-25T07:57:26;2.65;;;1.85;;
58071;SDS011;60383;46.626;18.866;2023-04-25T07:59:52;2.83;;;2.00;;
58071;SDS011;60383;46.626;18.866;2023-04-25T08:02:17;1.90;;;1.65;;
58071;SDS011;60383;46.626;18.866;2023-04-25T08:04:43;2.50;;;2.03;;
58071;SDS011;60383;46.626;18.866;2023-04-25T08:07:08;2.03;;;1.83;;
58071;SDS011;60383;46.626;18.866;2023-04-25T08:09:34;2.35;;;1.73;;
58071;SDS011;60383;46.626;18.866;2023-04-25T08:12:01;2.78;;;2.10;;
58071;SDS011;60383;46.626;18.866;2023-04-25T08:14:28;2.40;;;1.77;;
58071;SDS011;60383;46.626;18.866;2023-04-25T08:16:56;2.05;;;1.85;;
58071;SDS011;60383;46.626;18.866;2023-04-25T08:19:21;2.00;;;1.80;;
58071;SDS011;60383;46.626;18.866;2023-04-25T08:21:47;2.05;;;1.85;;
58071;SDS011;60383;46.626;18.866;2023-04-25T08:24:12;3.40;;;1.95;;
58071;SDS011;60383;46.626;18.866;2023-04-25T08:26:38;3.13;;;1.90;;
58071;SDS011;60383;46.626;18.866;2023-04-25T08:29:04;3.08;;;2.00;;
58071;SDS011;60383;46.626;18.866;2023-04-25T08:31:30;3.10;;;1.70;;
58071;SDS011;60383;46.626;18.866;2023-04-25T08:33:55;2.10;;;1.90;;
58071;SDS011;60383;46.626;18.866;2023-04-25T08:36:21;2.28;;;1.73;;
58071;SDS011;60383;46.626;18.866;2023-04-25T08:38:47;3.78;;;2.03;;
58071;SDS011;60383;46.626;18.866;2023-04-25T08:41:13;2.63;;;1.85;;
58071;SDS011;60383;46.626;18.866;2023-04-25T08:43:42;2.42;;;1.58;;
58071;SDS011;60383;46.626;18.866;2023-04-25T08:46:08;3.58;;;1.95;;
58071;SDS011;60383;46.626;18.866;2023-04-25T08:48:35;2.38;;;1.77;;
58071;SDS011;60383;46.626;18.866;2023-04-25T08:51:01;1.75;;;1.65;;
58071;SDS011;60383;46.626;18.866;2023-04-25T08:53:29;2.63;;;1.85;;
58071;SDS011;60383;46.626;18.866;2023-04-25T08:55:57;2.55;;;1.73;;
58071;SDS011;60383;46.626;18.866;2023-04-25T08:58:23;2.03;;;1.60;;
58071;SDS011;60383;46.626;18.866;2023-04-25T09:00:50;1.65;;;1.55;;
58071;SDS011;60383;46.626;18.866;2023-04-25T09:03:16;2.85;;;1.80;;
58071;SDS011;60383;46.626;18.866;2023-04-25T09:05:43;3.38;;;1.83;;
58071;SDS011;60383;46.626;18.866;2023-04-25T09:08:08;2.13;;;1.92;;
58071;SDS011;60383;46.626;18.866;2023-04-25T09:10:35;2.40;;;1.58;;
58071;SDS011;60383;46.626;18.866;2023-04-25T09:13:08;2.50;;;1.88;;
58071;SDS011;60383;46.626;18.866;2023-04-25T09:18:23;3.00;;;2.03;;
58071;SDS011;60383;46.626;18.866;2023-04-25T09:20:51;2.45;;;1.75;;
58071;SDS011;60383;46.626;18.866;2023-04-25T09:23:17;2.22;;;1.77;;
58071;SDS011;60383;46.626;18.866;2023-04-25T09:25:44;2.58;;;1.60;;
58071;SDS011;60383;46.626;18.866;2023-04-25T09:28:16;2.42;;;1.80;;
58071;SDS011;60383;46.626;18.866;2023-04-25T09:30:41;2.28;;;2.00;;
58071;SDS011;60383;46.626;18.866;2023-04-25T09:33:08;1.77;;;1.60;;
58071;SDS011;60383;46.626;18.866;2023-04-25T09:35:40;2.53;;;2.05;;
58071;SDS011;60383;46.626;18.866;2023-04-25T09:38:12;2.47;;;1.95;;
58071;SDS011;60383;46.626;18.866;2023-04-25T09:40:43;2.38;;;1.90;;
58071;SDS011;60383;46.626;18.866;2023-04-25T09:43:10;3.17;;;2.38;;
58071;SDS011;60383;46.626;18.866;2023-04-25T09:45:45;2.85;;;1.98;;
58071;SDS011;60383;46.626;18.866;2023-04-25T09:48:11;2.10;;;1.83;;
58071;SDS011;60383;46.626;18.866;2023-04-25T09:50:38;1.98;;;1.73;;
58071;SDS011;60383;46.626;18.866;2023-04-25T09:53:04;2.00;;;1.67;;
58071;SDS011;60383;46.626;18.866;2023-04-25T09:55:34;2.40;;;1.73;;
58071;SDS011;60383;46.626;18.866;2023-04-25T09:58:05;2.17;;;1.90;;
58071;SDS011;60383;46.626;18.866;2023-04-25T10:00:33;2.13;;;1.85;;
58071;SDS011;60383;46.626;18.866;2023-04-25T10:03:03;2.13;;;1.80;;
58071;SDS011;60383;46.626;18.866;2023-04-25T10:05:32;2.28;;;1.95;;
58071;SDS011;60383;46.626;18.866;2023-04-25T10:08:02;2.00;;;1.80;;
58071;SDS011;60383;46.626;18.866;2023-04-25T10:10:31;2.47;;;2.20;;
58071;SDS011;60383;46.626;18.866;2023-04-25T10:13:01;2.03;;;1.70;;
58071;SDS011;60383;46.626;18.866;2023-04-25T10:15:28;2.35;;;2.00;;
58071;SDS011;60383;46.626;18.866;2023-04-25T10:17:55;2.30;;;1.80;;
58071;SDS011;60383;46.626;18.866;2023-04-25T10:20:22;2.08;;;1.88;;
58071;SDS011;60383;46.626;18.866;2023-04-25T10:22:47;2.15;;;1.85;;
58071;SDS011;60383;46.626;18.866;2023-04-25T10:25:13;2.38;;;1.83;;
58071;SDS011;60383;46.626;18.866;2023-04-25T10:27:40;2.20;;;1.90;;
58071;SDS011;60383;46.626;18.866;2023-04-25T10:30:24;1.77;;;1.65;;
58071;SDS011;60383;46.626;18.866;2023-04-25T10:32:49;2.08;;;1.88;;
58071;SDS011;60383;46.626;18.866;2023-04-25T10:38:04;2.00;;;1.80;;
58071;SDS011;60383;46.626;18.866;2023-04-25T10:40:38;2.10;;;1.90;;
58071;SDS011;60383;46.626;18.866;2023-04-25T10:45:54;1.95;;;1.48;;
58071;SDS011;60383;46.626;18.866;2023-04-25T10:48:26;1.88;;;1.70;;
58071;SDS011;60383;46.626;18.866;2023-04-25T10:51:07;2.28;;;2.05;;
58071;SDS011;60383;46.626;18.866;2023-04-25T10:53:34;2.40;;;1.67;;
58071;SDS011;60383;46.626;18.866;2023-04-25T10:56:00;1.90;;;1.70;;
58071;SDS011;60383;46.626;18.866;2023-04-25T10:58:25;2.03;;;1.88;;
58071;SDS011;60383;46.626;18.866;2023-04-25T11:00:51;2.10;;;1.90;;
58071;SDS011;60383;46.626;18.866;2023-04-25T11:03:17;2.72;;;1.88;;
58071;SDS011;60383;46.626;18.866;2023-04-25T11:05:46;1.87;;;1.70;;
58071;SDS011;60383;46.626;18.866;2023-04-25T11:08:14;2.33;;;1.48;;
58071;SDS011;60383;46.626;18.866;2023-04-25T11:10:49;1.75;;;1.50;;
58071;SDS011;60383;46.626;18.866;2023-04-25T11:13:15;1.52;;;1.42;;
58071;SDS011;60383;46.626;18.866;2023-04-25T11:15:41;1.60;;;1.50;;
58071;SDS011;60383;46.626;18.866;2023-04-25T11:18:06;1.42;;;1.33;;
58071;SDS011;60383;46.626;18.866;2023-04-25T11:20:32;1.80;;;1.60;;
58071;SDS011;60383;46.626;18.866;2023-04-25T11:22:57;2.13;;;1.60;;
58071;SDS011;60383;46.626;18.866;2023-04-25T11:25:25;2.17;;;1.60;;
58071;SDS011;60383;46.626;18.866;2023-04-25T11:27:57;1.58;;;1.45;;
58071;SDS011;60383;46.626;18.866;2023-04-25T11:30:28;1.70;;;1.60;;
58071;SDS011;60383;46.626;18.866;2023-04-25T11:32:55;2.15;;;1.60;;
58071;SDS011;60383;46.626;18.866;2023-04-25T11:35:21;1.45;;;1.35;;
58071;SDS011;60383;46.626;18.866;2023-04-25T11:37:48;2.08;;;1.60;;
58071;SDS011;60383;46.626;18.866;2023-04-25T11:40:15;1.83;;;1.20;;
58071;SDS011;60383;46.626;18.866;2023-04-25T11:42:44;1.60;;;1.50;;
58071;SDS011;60383;46.626;18.866;2023-04-25T11:45:12;1.50;;;1.40;;
58071;SDS011;60383;46.626;18.866;2023-04-25T11:47:38;1.95;;;1.42;;
58071;SDS011;60383;46.626;18.866;2023-04-25T11:50:04;1.40;;;1.30;;
58071;SDS011;60383;46.626;18.866;2023-04-25T11:52:39;1.50;;;1.40;;
58071;SDS011;60383;46.626;18.866;2023-04-25T11:55:06;2.47;;;1.30;;
58071;SDS011;60383;46.626;18.866;2023-04-25T11:57:38;1.38;;;1.27;;
58071;SDS011;60383;46.626;18.866;2023-04-25T12:00:09;1.85;;;1.50;;
58071;SDS011;60383;46.626;18.866;2023-04-25T12:02:39;1.25;;;1.15;;
58071;SDS011;60383;46.626;18.866;2023-04-25T12:05:06;1.42;;;1.08;;
58071;SDS011;60383;46.626;18.866;2023-04-25T12:07:35;2.20;;;1.30;;
58071;SDS011;60383;46.626;18.866;2023-04-25T12:10:09;1.92;;;1.40;;
58071;SDS011;60383;46.626;18.866;2023-04-25T12:12:36;1.83;;;1.10;;
58071;SDS011;60383;46.626;18.866;2023-04-25T12:17:44;1.40;;;1.30;;
58071;SDS011;60383;46.626;18.866;2023-04-25T12:20:14;1.73;;;1.52;;
58071;SDS011;60383;46.626;18.866;2023-04-25T12:22:42;1.80;;;1.40;;
58071;SDS011;60383;46.626;18.866;2023-04-25T12:25:12;1.27;;;1.10;;
58071;SDS011;60383;46.626;18.866;2023-04-25T12:28:20;1.92;;;1.35;;
58071;SDS011;60383;46.626;18.866;2023-04-25T12:31:06;1.33;;;1.23;;
58071;SDS011;60383;46.626;18.866;2023-04-25T12:33:33;1.77;;;1.30;;
58071;SDS011;60383;46.626;18.866;2023-04-25T12:35:59;2.58;;;1.40;;
58071;SDS011;60383;46.626;18.866;2023-04-25T12:38:29;2.87;;;1.30;;
58071;SDS011;60383;46.626;18.866;2023-04-25T12:40:56;1.20;;;1.10;;
58071;SDS011;60383;46.626;18.866;2023-04-25T12:43:23;1.98;;;1.48;;
58071;SDS011;60383;46.626;18.866;2023-04-25T12:45:49;1.38;;;1.08;;
58071;SDS011;60383;46.626;18.866;2023-04-25T12:48:18;2.00;;;1.40;;
58071;SDS011;60383;46.626;18.866;2023-04-25T12:50:44;2.25;;;0.90;;
58071;SDS011;60383;46.626;18.866;2023-04-25T12:53:13;1.23;;;1.13;;
58071;SDS011;60383;46.626;18.866;2023-04-25T12:55:38;1.02;;;0.93;;
58071;SDS011;60383;46.626;18.866;2023-04-25T12:58:04;1.20;;;1.10;;
58071;SDS011;60383;46.626;18.866;2023-04-25T13:00:29;1.00;;;0.95;;
58071;SDS011;60383;46.626;18.866;2023-04-25T13:02:55;1.08;;;0.90;;
58071;SDS011;60383;46.626;18.866;2023-04-25T13:05:21;1.20;;;1.00;;
58071;SDS011;60383;46.626;18.866;2023-04-25T13:07:46;1.33;;;1.00;;
58071;SDS011;60383;46.626;18.866;2023-04-25T13:10:12;1.10;;;1.00;;
58071;SDS011;60383;46.626;18.866;2023-04-25T13:12:37;1.60;;;1.30;;
58071;SDS011;60383;46.626;18.866;2023-04-25T13:15:03;1.00;;;0.80;;
58071;SDS011;60383;46.626;18.866;2023-04-25T13:17:29;1.27;;;1.00;;
58071;SDS011;60383;46.626;18.866;2023-04-25T13:19:56;1.88;;;1.00;;
58071;SDS011;60383;46.626;18.866;2023-04-25T13:22:21;1.50;;;1.08;;
58071;SDS011;60383;46.626;18.866;2023-04-25T13:24:47;1.42;;;1.10;;
58071;SDS011;60383;46.626;18.866;2023-04-25T13:27:13;1.02;;;0.93;;
58071;SDS011;60383;46.626;18.866;2023-04-25T13:29:38;1.25;;;1.02;;
58071;SDS011;60383;46.626;18.866;2023-04-25T13:32:05;1.10;;;1.00;;
58071;SDS011;60383;46.626;18.866;2023-04-25T13:34:31;2.40;;;1.10;;
58071;SDS011;60383;46.626;18.866;2023-04-25T13:36:57;1.30;;;0.95;;
58071;SDS011;60383;46.626;18.866;2023-04-25T13:39:23;1.20;;;1.10;;
58071;SDS011;60383;46.626;18.866;2023-04-25T13:41:49;1.17;;;1.02;;
58071;SDS011;60383;46.626;18.866;2023-04-25T13:44:15;1.52;;;1.20;;
58071;SDS011;60383;46.626;18.866;2023-04-25T13:46:41;1.67;;;1.10;;
58071;SDS011;60383;46.626;18.866;2023-04-25T13:49:06;1.48;;;1.20;;
58071;SDS011;60383;46.626;18.866;2023-04-25T13:51:32;1.33;;;0.95;;
58071;SDS011;60383;46.626;18.866;2023-04-25T13:53:57;1.42;;;1.30;;
58071;SDS011;60383;46.626;18.866;2023-04-25T13:56:23;1.58;;;0.90;;
58071;SDS011;60383;46.626;18.866;2023-04-25T13:58:51;1.27;;;1.00;;
58071;SDS011;60383;46.626;18.866;2023-04-25T14:01:17;2.75;;;0.90;;
58071;SDS011;60383;46.626;18.866;2023-04-25T14:03:43;1.00;;;0.85;;
58071;SDS011;60383;46.626;18.866;2023-04-25T14:06:09;0.82;;;0.82;;
58071;SDS011;60383;46.626;18.866;2023-04-25T14:08:34;1.02;;;0.93;;
58071;SDS011;60383;46.626;18.866;2023-04-25T14:11:00;1.48;;;1.27;;
58071;SDS011;60383;46.626;18.866;2023-04-25T14:13:25;1.10;;;1.00;;
58071;SDS011;60383;46.626;18.866;2023-04-25T14:15:51;1.23;;;1.13;;
58071;SDS011;60383;46.626;18.866;2023-04-25T14:18:17;1.80;;;1.23;;
58071;SDS011;60383;46.626;18.866;2023-04-25T14:20:43;1.20;;;1.10;;
58071;SDS011;60383;46.626;18.866;2023-04-25T14:23:08;2.08;;;1.10;;
58071;SDS011;60383;46.626;18.866;2023-04-25T14:25:34;0.90;;;0.90;;
58071;SDS011;60383;46.626;18.866;2023-04-25T14:28:01;0.90;;;0.90;;
58071;SDS011;60383;46.626;18.866;2023-04-25T14:30:26;1.63;;;1.52;;
58071;SDS011;60383;46.626;18.866;2023-04-25T14:32:52;1.77;;;1.50;;
58071;SDS011;60383;46.626;18.866;2023-04-25T14:35:17;1.65;;;1.10;;
58071;SDS011;60383;46.626;18.866;2023-04-25T14:37:43;2.17;;;1.10;;
58071;SDS011;60383;46.626;18.866;2023-04-25T14:40:09;1.83;;;1.20;;